Time;durP1;ratioP1;P1;durP2;ratioP2;P2;SDS_P1;SDS_P2;PMS_P1;PMS_P2;Temp;Humidity;BMP_temperature;BMP_pressure;BME280_temperature;BME280_humidity;BME280_pressure;Samples;Min_cycle;Max_cycle;Signal;HPM_P1;HPM_P2
2023/12/26 00:00:00;;;;;;;2.08;1.10;;;10.10;32.30;;;;;;4941301;28;20167;-80
2023/12/26 00:02:28;;;;;;;2.05;1.10;;;10.20;1.00;;;;;;4941517;28;20144;-80
2023/12/26 00:04:55;;;;;;;1.73;1.10;;;10.10;1.00;;;;;;4927383;28;20109;-80
2023/12/26 00:07:23;;;;;;;2.53;1.10;;;10.10;99.90;;;;;;4984681;28;20051;-79
2023/12/26 00:09:50;;;;;;;4.32;1.40;;;10.10;99.90;;;;;;4957928;28;20686;-80
2023/12/26 00:12:17;;;;;;;2.95;1.45;;;10.00;1.00;;;;;;4946336;28;20054;-81
2023/12/26 00:14:45;;;;;;;2.35;1.33;;;10.00;99.90;;;;;;4966688;28;20098;-81
2023/12/26 00:17:12;;;;;;;4.82;1.10;;;10.00;1.00;;;;;;4944579;28;20504;-80
2023/12/26 00:19:39;;;;;;;1.70;1.08;;;10.00;99.90;;;;;;4940833;28;20057;-81
2023/12/26 00:22:06;;;;;;;1.45;0.80;;;10.00;99.90;;;;;;4949532;28;20376;-81
2023/12/26 00:24:33;;;;;;;2.00;1.02;;;10.00;99.90;;;;;;4943000;28;20070;-80
2023/12/26 00:27:01;;;;;;;2.20;0.80;;;10.00;99.90;;;;;;4955427;28;20054;-80
2023/12/26 00:29:28;;;;;;;1.67;0.80;;;10.00;99.90;;;;;;4984156;28;20342;-80
2023/12/26 00:31:55;;;;;;;3.58;0.90;;;10.10;1.00;;;;;;4961156;28;20065;-79
2023/12/26 00:34:23;;;;;;;2.25;0.90;;;10.10;99.90;;;;;;4924327;28;1324957;-80
2023/12/26 00:36:53;;;;;;;2.33;1.17;;;10.20;99.90;;;;;;4943984;28;20153;-80
2023/12/26 00:39:21;;;;;;;1.08;1.02;;;10.20;99.90;;;;;;4960606;28;20134;-80
2023/12/26 00:41:48;;;;;;;1.52;0.80;;;10.20;99.90;;;;;;4962811;28;20539;-80
2023/12/26 00:44:15;;;;;;;2.40;0.80;;;10.30;99.90;;;;;;4965264;28;20078;-80
2023/12/26 00:46:46;;;;;;;2.15;1.08;;;10.30;99.90;;;;;;4963999;28;20142;-80
2023/12/26 00:49:13;;;;;;;2.65;0.93;;;10.30;17.90;;;;;;4964439;28;20046;-80
2023/12/26 00:51:41;;;;;;;1.13;0.82;;;10.30;6.30;;;;;;4934357;28;20543;-80
2023/12/26 00:54:08;;;;;;;2.22;0.85;;;10.40;1.00;;;;;;4951753;28;20043;-80
2023/12/26 00:56:36;;;;;;;0.98;0.73;;;10.40;1.00;;;;;;4964906;28;20428;-81
2023/12/26 00:59:03;;;;;;;1.65;0.68;;;10.50;1.00;;;;;;4948769;28;20053;-81
2023/12/26 01:01:30;;;;;;;1.88;0.80;;;10.50;1.00;;;;;;4932276;28;20758;-80
2023/12/26 01:03:58;;;;;;;2.03;0.98;;;10.50;1.00;;;;;;4929305;28;20055;-81
2023/12/26 01:06:25;;;;;;;1.85;1.25;;;10.50;99.90;;;;;;4946133;28;20148;-80
2023/12/26 01:08:52;;;;;;;3.13;0.90;;;10.50;99.90;;;;;;4945575;29;20078;-83
2023/12/26 01:11:19;;;;;;;2.83;1.20;;;10.50;99.90;;;;;;4951087;28;20053;-80
2023/12/26 01:13:46;;;;;;;2.20;0.80;;;10.50;99.90;;;;;;4949283;28;20148;-80
2023/12/26 01:16:16;;;;;;;2.17;0.80;;;10.50;99.90;;;;;;4927905;28;20060;-81
2023/12/26 01:18:43;;;;;;;2.08;0.98;;;10.50;99.90;;;;;;4928689;28;20165;-80
2023/12/26 01:21:11;;;;;;;3.38;0.90;;;10.50;99.90;;;;;;4958189;28;20051;-80
2023/12/26 01:23:38;;;;;;;2.75;1.35;;;10.50;99.90;;;;;;4934341;28;20086;-81
2023/12/26 01:26:05;;;;;;;2.13;1.08;;;10.50;99.90;;;;;;4932975;28;20069;-80
2023/12/26 01:28:32;;;;;;;1.67;0.60;;;10.40;99.90;;;;;;4947381;28;20061;-80
2023/12/26 01:30:59;;;;;;;1.63;0.93;;;10.40;99.90;;;;;;4930500;28;20109;-80
2023/12/26 01:33:27;;;;;;;1.65;0.80;;;10.40;99.90;;;;;;4960417;28;20698;-79
2023/12/26 01:35:54;;;;;;;1.88;0.77;;;10.40;99.90;;;;;;4927239;29;20043;-80
2023/12/26 01:38:21;;;;;;;4.53;1.10;;;10.30;99.90;;;;;;4945347;28;20469;-80
2023/12/26 01:40:49;;;;;;;2.10;0.93;;;10.30;99.90;;;;;;4946040;28;20047;-79
2023/12/26 01:43:15;;;;;;;3.42;1.20;;;10.20;99.90;;;;;;4936142;28;20058;-80
2023/12/26 01:45:42;;;;;;;2.60;1.00;;;10.20;99.90;;;;;;4945620;28;20552;-79
2023/12/26 01:48:09;;;;;;;3.58;1.00;;;10.20;99.90;;;;;;4957672;28;20110;-81
2023/12/26 01:50:37;;;;;;;4.65;1.40;;;10.10;99.90;;;;;;4962835;28;20054;-80
2023/12/26 01:53:04;;;;;;;4.25;2.00;;;10.10;99.90;;;;;;4931454;28;20508;-80
2023/12/26 01:55:33;;;;;;;3.72;1.15;;;10.10;99.90;;;;;;4932269;28;20059;-79
2023/12/26 01:58:00;;;;;;;4.40;1.35;;;10.10;99.90;;;;;;4947204;28;20051;-80
2023/12/26 02:00:27;;;;;;;4.55;1.83;;;10.00;99.90;;;;;;4931714;28;20054;-80
2023/12/26 02:02:54;;;;;;;2.05;1.20;;;10.00;99.90;;;;;;4945766;28;20077;-80
2023/12/26 02:05:22;;;;;;;2.90;1.00;;;10.00;99.90;;;;;;4946953;28;20125;-80
2023/12/26 02:07:49;;;;;;;2.30;1.05;;;9.90;99.90;;;;;;4946965;28;20507;-81
2023/12/26 02:10:16;;;;;;;2.38;1.05;;;9.90;99.90;;;;;;4946848;28;20043;-79
2023/12/26 02:12:43;;;;;;;4.10;0.90;;;9.90;99.90;;;;;;4946908;28;20062;-80
2023/12/26 02:15:10;;;;;;;1.88;0.80;;;9.80;99.90;;;;;;4935857;28;20043;-80
2023/12/26 02:17:38;;;;;;;2.85;1.13;;;9.80;99.90;;;;;;4943408;28;20180;-79
2023/12/26 02:20:05;;;;;;;3.22;1.00;;;9.80;99.90;;;;;;4931364;28;20378;-80
2023/12/26 02:22:32;;;;;;;3.83;1.05;;;9.70;99.90;;;;;;4946010;28;20054;-80
2023/12/26 02:25:00;;;;;;;1.42;0.68;;;9.70;99.90;;;;;;4964984;28;20763;-80
2023/12/26 02:27:33;;;;;;;2.67;0.90;;;9.70;99.90;;;;;;4930518;28;20050;-80
2023/12/26 02:30:00;;;;;;;0.98;0.55;;;9.60;99.90;;;;;;4927731;28;20054;-80
2023/12/26 02:32:27;;;;;;;2.25;0.90;;;9.60;99.90;;;;;;4945069;28;20082;-80
2023/12/26 02:34:55;;;;;;;2.35;0.88;;;9.50;99.90;;;;;;4930210;28;20465;-80
2023/12/26 02:37:23;;;;;;;2.10;0.80;;;9.50;99.90;;;;;;4943335;28;20073;-80
2023/12/26 02:39:50;;;;;;;4.57;0.85;;;9.50;99.90;;;;;;4967102;28;20047;-79
2023/12/26 02:42:18;;;;;;;0.95;0.70;;;9.50;99.90;;;;;;4950145;28;20137;-79
2023/12/26 02:44:45;;;;;;;1.70;0.73;;;9.50;99.90;;;;;;4933378;28;21029;-80
2023/12/26 02:47:13;;;;;;;3.00;0.88;;;9.40;99.90;;;;;;4945130;28;20502;-80
2023/12/26 02:49:41;;;;;;;1.48;0.90;;;9.40;99.90;;;;;;4948449;28;20046;-80
2023/12/26 02:52:08;;;;;;;1.50;0.98;;;9.40;99.90;;;;;;4942208;28;20054;-80
2023/12/26 02:54:36;;;;;;;1.40;0.80;;;9.30;99.90;;;;;;4949891;28;20215;-80
2023/12/26 02:57:03;;;;;;;0.80;0.70;;;9.30;99.90;;;;;;4947720;28;20054;-79
2023/12/26 02:59:30;;;;;;;0.90;0.57;;;9.30;99.90;;;;;;4963649;28;20047;-80
2023/12/26 03:02:00;;;;;;;3.10;1.00;;;9.30;99.90;;;;;;4946929;28;20043;-80
2023/12/26 03:04:28;;;;;;;0.52;0.45;;;9.30;99.90;;;;;;4947151;28;20420;-79
2023/12/26 03:06:55;;;;;;;2.92;1.20;;;9.20;99.90;;;;;;4945192;28;20501;-80
2023/12/26 03:09:22;;;;;;;2.05;0.95;;;9.20;99.90;;;;;;4944462;28;20051;-79
2023/12/26 03:11:49;;;;;;;1.88;0.80;;;9.10;99.90;;;;;;4963358;28;20508;-79
2023/12/26 03:14:16;;;;;;;1.45;0.93;;;9.10;99.90;;;;;;4931582;28;20066;-79
2023/12/26 03:16:43;;;;;;;2.00;0.90;;;9.10;99.90;;;;;;4948110;28;20054;-80
2023/12/26 03:19:10;;;;;;;1.17;0.80;;;9.10;99.90;;;;;;4963241;28;20054;-79
2023/12/26 03:21:38;;;;;;;0.73;0.60;;;9.10;99.90;;;;;;4961929;28;20062;-79
2023/12/26 03:24:05;;;;;;;2.75;1.33;;;9.00;99.90;;;;;;4962349;28;20048;-79
2023/12/26 03:26:32;;;;;;;1.23;0.50;;;9.00;99.90;;;;;;4952897;28;20415;-80
2023/12/26 03:28:59;;;;;;;1.77;0.80;;;9.00;99.90;;;;;;4948531;28;20046;-80
2023/12/26 03:31:26;;;;;;;1.48;0.73;;;8.90;99.90;;;;;;4930781;28;20043;-79
2023/12/26 03:33:55;;;;;;;1.20;0.60;;;8.90;99.90;;;;;;4944685;28;20043;-80
2023/12/26 03:36:22;;;;;;;1.38;0.80;;;8.90;99.90;;;;;;4963617;28;20039;-79
2023/12/26 03:38:49;;;;;;;2.75;0.70;;;8.90;99.90;;;;;;4965332;28;20055;-79
2023/12/26 03:41:17;;;;;;;1.88;0.70;;;8.90;99.90;;;;;;4966904;28;20451;-79
2023/12/26 03:43:44;;;;;;;0.88;0.60;;;8.90;99.90;;;;;;4926180;28;20054;-80
2023/12/26 03:46:11;;;;;;;1.10;0.82;;;8.80;99.90;;;;;;4948008;28;20082;-79
2023/12/26 03:48:38;;;;;;;1.77;0.95;;;8.80;99.90;;;;;;4964354;28;20662;-79
2023/12/26 03:51:05;;;;;;;2.05;0.70;;;8.80;99.90;;;;;;4945072;28;20122;-78
2023/12/26 03:53:33;;;;;;;0.70;0.70;;;8.80;99.90;;;;;;4964382;28;20047;-80
2023/12/26 03:56:00;;;;;;;1.73;0.80;;;8.70;99.90;;;;;;4964736;28;20043;-79
2023/12/26 03:58:27;;;;;;;1.25;0.73;;;8.70;99.90;;;;;;4987934;28;20046;-79
2023/12/26 04:00:54;;;;;;;1.65;0.90;;;8.70;99.90;;;;;;4964142;28;20084;-79
2023/12/26 04:03:21;;;;;;;2.38;0.95;;;8.70;99.90;;;;;;4963684;28;20077;-79
2023/12/26 04:05:48;;;;;;;2.33;0.85;;;8.70;99.90;;;;;;4966762;28;20150;-79
2023/12/26 04:08:15;;;;;;;1.98;0.90;;;8.70;99.90;;;;;;4968846;28;20381;-79
2023/12/26 04:10:42;;;;;;;2.17;1.00;;;8.70;99.90;;;;;;4965659;28;20063;-79
2023/12/26 04:13:09;;;;;;;1.63;0.85;;;8.70;99.90;;;;;;4963747;28;20413;-79
2023/12/26 04:15:36;;;;;;;3.00;1.55;;;8.70;99.90;;;;;;4964854;28;20051;-79
2023/12/26 04:18:03;;;;;;;2.55;0.93;;;8.70;99.90;;;;;;4947107;28;20050;-79
2023/12/26 04:20:31;;;;;;;2.10;0.82;;;8.70;99.90;;;;;;4965929;28;20047;-79
2023/12/26 04:22:58;;;;;;;2.53;0.95;;;8.60;99.90;;;;;;4950128;28;20476;-79
2023/12/26 04:25:25;;;;;;;0.95;0.70;;;8.60;99.90;;;;;;4967434;28;20070;-79
2023/12/26 04:27:53;;;;;;;1.48;0.80;;;8.60;99.90;;;;;;4931743;29;20043;-80
2023/12/26 04:30:20;;;;;;;1.48;0.98;;;8.60;99.90;;;;;;4942221;28;20438;-79
2023/12/26 04:32:48;;;;;;;2.78;0.80;;;8.60;99.90;;;;;;4965618;28;20051;-79
2023/12/26 04:35:15;;;;;;;0.93;0.60;;;8.60;99.90;;;;;;4966423;28;20570;-79
2023/12/26 04:37:42;;;;;;;2.05;0.95;;;8.50;99.90;;;;;;4948510;28;20059;-79
2023/12/26 04:40:10;;;;;;;2.35;1.00;;;8.60;99.90;;;;;;4966560;28;20129;-79
2023/12/26 04:42:37;;;;;;;2.45;0.98;;;8.60;99.90;;;;;;4950108;28;20059;-80
2023/12/26 04:45:04;;;;;;;1.75;0.80;;;8.60;99.90;;;;;;4967596;28;20089;-79
2023/12/26 04:47:31;;;;;;;1.65;0.80;;;8.60;99.90;;;;;;4962238;28;20086;-79
2023/12/26 04:49:59;;;;;;;3.05;1.05;;;8.50;99.90;;;;;;4965319;28;20150;-79
2023/12/26 04:52:26;;;;;;;3.90;0.80;;;8.50;99.90;;;;;;4962941;28;20081;-79
2023/12/26 04:54:53;;;;;;;1.42;0.70;;;8.50;99.90;;;;;;4960400;28;20479;-79
2023/12/26 04:57:20;;;;;;;1.88;0.70;;;8.50;99.90;;;;;;4968210;28;20158;-80
2023/12/26 04:59:47;;;;;;;2.47;1.10;;;8.50;99.90;;;;;;4965426;28;20065;-79
2023/12/26 05:02:14;;;;;;;1.45;0.70;;;8.50;99.90;;;;;;4967550;28;20393;-80
2023/12/26 05:04:41;;;;;;;3.17;1.00;;;8.50;99.90;;;;;;4951040;28;20118;-79
2023/12/26 05:07:08;;;;;;;2.30;0.90;;;8.50;99.90;;;;;;4965996;28;20522;-79
2023/12/26 05:09:35;;;;;;;0.77;0.60;;;8.40;99.90;;;;;;4966121;28;20145;-80
2023/12/26 05:12:03;;;;;;;3.15;0.85;;;8.40;99.90;;;;;;4951080;28;20088;-79
2023/12/26 05:14:30;;;;;;;1.27;0.50;;;8.40;99.90;;;;;;4962487;28;20043;-79
2023/12/26 05:16:57;;;;;;;1.60;1.00;;;8.40;99.90;;;;;;4944073;28;20058;-80
2023/12/26 05:19:24;;;;;;;1.92;0.80;;;8.30;99.90;;;;;;4965606;28;20396;-79
2023/12/26 05:21:53;;;;;;;2.65;1.10;;;8.30;99.90;;;;;;4946601;28;20047;-79
2023/12/26 05:24:20;;;;;;;5.93;1.25;;;8.30;99.90;;;;;;4947584;28;20363;-79
2023/12/26 05:26:47;;;;;;;1.20;0.60;;;8.30;99.90;;;;;;4961226;28;20047;-79
2023/12/26 05:29:15;;;;;;;2.33;0.70;;;8.30;99.90;;;;;;4967107;28;20051;-80
2023/12/26 05:31:42;;;;;;;1.23;0.85;;;8.30;99.90;;;;;;4965889;28;20054;-79
2023/12/26 05:34:09;;;;;;;2.53;0.70;;;8.30;99.90;;;;;;4948931;28;20066;-78
2023/12/26 05:36:36;;;;;;;1.30;0.73;;;8.30;99.90;;;;;;4950479;28;20110;-79
2023/12/26 05:39:03;;;;;;;2.45;0.90;;;8.20;99.90;;;;;;4966394;28;20627;-80
2023/12/26 05:41:31;;;;;;;1.63;0.82;;;8.20;99.90;;;;;;4946635;29;20633;-79
2023/12/26 05:43:58;;;;;;;1.25;0.57;;;8.20;99.90;;;;;;4955085;28;20057;-79
2023/12/26 05:46:29;;;;;;;0.60;0.50;;;8.20;99.90;;;;;;4948964;28;20050;-79
2023/12/26 05:48:56;;;;;;;2.38;0.90;;;8.20;99.90;;;;;;4956081;28;20497;-79
2023/12/26 05:51:25;;;;;;;2.47;0.80;;;8.20;99.90;;;;;;4958254;28;20082;-78
2023/12/26 05:53:52;;;;;;;1.20;0.90;;;8.20;99.90;;;;;;4949224;28;20051;-80
2023/12/26 05:56:19;;;;;;;1.05;0.65;;;8.20;99.90;;;;;;4964449;28;20054;-79
2023/12/26 05:58:46;;;;;;;1.98;0.70;;;8.20;99.90;;;;;;4964913;28;20059;-79
2023/12/26 06:01:13;;;;;;;2.13;0.93;;;8.20;99.90;;;;;;4957117;28;20493;-80
2023/12/26 06:03:40;;;;;;;1.27;0.80;;;8.20;99.90;;;;;;4942384;28;20054;-79
2023/12/26 06:06:13;;;;;;;3.28;0.90;;;8.20;99.90;;;;;;4927158;28;20066;-80
2023/12/26 06:08:41;;;;;;;2.22;0.65;;;8.20;99.90;;;;;;4931299;28;20061;-79
2023/12/26 06:11:08;;;;;;;2.17;0.88;;;8.20;99.90;;;;;;4931681;28;20078;-80
2023/12/26 06:13:36;;;;;;;2.55;0.60;;;8.10;99.90;;;;;;4964213;28;20061;-80
2023/12/26 06:16:03;;;;;;;1.30;0.60;;;8.10;99.90;;;;;;4963673;28;20097;-79
2023/12/26 06:18:30;;;;;;;1.08;0.60;;;8.10;99.90;;;;;;4963122;28;20583;-79
2023/12/26 06:20:57;;;;;;;1.45;0.60;;;8.10;99.90;;;;;;4961951;28;20530;-79
2023/12/26 06:23:26;;;;;;;0.90;0.65;;;8.10;99.90;;;;;;4928509;28;20051;-79
2023/12/26 06:25:56;;;;;;;1.45;0.50;;;8.10;99.90;;;;;;4960476;28;20042;-80
2023/12/26 06:28:24;;;;;;;0.68;0.60;;;8.10;99.90;;;;;;4961178;28;20101;-79
2023/12/26 06:30:51;;;;;;;1.20;0.65;;;8.10;99.90;;;;;;4960510;28;20101;-79
2023/12/26 06:33:19;;;;;;;0.80;0.60;;;8.10;99.90;;;;;;4945616;28;20050;-79
2023/12/26 06:35:46;;;;;;;1.77;0.80;;;8.10;99.90;;;;;;4963331;28;20047;-79
2023/12/26 06:38:13;;;;;;;1.30;0.63;;;8.10;99.90;;;;;;4962679;28;20066;-79
2023/12/26 06:40:40;;;;;;;2.30;0.60;;;8.10;99.90;;;;;;4944654;28;20043;-79
2023/12/26 06:43:09;;;;;;;1.35;0.60;;;8.10;99.90;;;;;;4961345;28;20457;-79
2023/12/26 06:45:36;;;;;;;1.63;0.70;;;8.10;99.90;;;;;;4964429;28;20081;-79
2023/12/26 06:48:03;;;;;;;2.15;0.80;;;8.10;99.90;;;;;;4930361;28;20063;-79
2023/12/26 06:50:31;;;;;;;2.28;1.10;;;8.00;99.90;;;;;;4961926;28;21415;-79
2023/12/26 06:52:58;;;;;;;1.50;0.60;;;8.00;99.90;;;;;;4927440;28;20061;-79
2023/12/26 06:55:27;;;;;;;5.07;1.05;;;8.00;99.90;;;;;;4947052;28;20563;-79
2023/12/26 06:57:54;;;;;;;2.33;0.80;;;8.00;99.90;;;;;;4963451;28;20141;-80
2023/12/26 07:00:22;;;;;;;1.63;0.75;;;8.00;99.90;;;;;;4962638;28;20497;-79
2023/12/26 07:02:49;;;;;;;2.10;0.98;;;8.00;99.90;;;;;;4956448;28;20094;-79
2023/12/26 07:05:16;;;;;;;1.45;0.80;;;8.00;99.90;;;;;;4942468;28;20091;-79
2023/12/26 07:07:43;;;;;;;1.85;0.73;;;7.90;99.90;;;;;;4962702;28;20090;-79
2023/12/26 07:10:10;;;;;;;1.27;0.75;;;7.90;99.90;;;;;;4962292;28;20533;-79
2023/12/26 07:12:38;;;;;;;1.30;0.80;;;7.90;99.90;;;;;;4958358;28;20066;-79
2023/12/26 07:15:06;;;;;;;2.13;1.00;;;7.90;99.90;;;;;;4959815;28;20149;-79
2023/12/26 07:17:33;;;;;;;2.17;0.77;;;7.90;99.90;;;;;;4957111;28;20057;-79
2023/12/26 07:20:01;;;;;;;1.95;0.70;;;7.80;99.90;;;;;;4960956;28;20138;-78
2023/12/26 07:22:28;;;;;;;1.08;0.70;;;7.80;99.90;;;;;;4959126;28;20070;-79
2023/12/26 07:24:55;;;;;;;0.93;0.60;;;7.80;99.90;;;;;;4960850;28;20055;-79
2023/12/26 07:27:22;;;;;;;1.42;1.10;;;7.80;99.90;;;;;;4960950;28;20050;-79
2023/12/26 07:29:49;;;;;;;1.52;0.73;;;7.80;99.90;;;;;;4963504;28;20050;-79
2023/12/26 07:32:16;;;;;;;6.00;1.02;;;7.80;99.90;;;;;;4922163;28;20575;-79
2023/12/26 07:34:43;;;;;;;1.35;0.80;;;7.80;99.90;;;;;;4958334;28;20485;-79
2023/12/26 07:37:10;;;;;;;1.67;0.73;;;7.70;99.90;;;;;;4927361;28;20125;-78
2023/12/26 07:39:37;;;;;;;2.03;0.98;;;7.70;99.90;;;;;;4943421;28;20556;-78
2023/12/26 07:42:04;;;;;;;1.17;0.70;;;7.70;99.90;;;;;;4963419;28;20490;-79
2023/12/26 07:44:31;;;;;;;0.65;0.40;;;7.70;99.90;;;;;;4966751;28;20082;-80
2023/12/26 07:46:58;;;;;;;1.30;0.77;;;7.60;99.90;;;;;;4926927;29;20047;-79
2023/12/26 07:49:25;;;;;;;0.57;0.40;;;7.60;99.90;;;;;;4955221;28;20055;-79
2023/12/26 07:51:53;;;;;;;2.35;0.90;;;7.60;99.90;;;;;;4965510;28;20119;-79
2023/12/26 07:54:20;;;;;;;1.85;0.70;;;7.60;99.90;;;;;;4949809;28;20509;-80
2023/12/26 07:56:47;;;;;;;1.95;0.77;;;7.60;99.90;;;;;;4964872;28;20129;-80
2023/12/26 07:59:15;;;;;;;2.33;0.57;;;7.50;99.90;;;;;;4966966;28;20061;-80
2023/12/26 08:01:43;;;;;;;1.10;0.70;;;7.60;99.90;;;;;;4948020;28;20231;-79
2023/12/26 08:04:10;;;;;;;0.40;0.40;;;7.50;99.90;;;;;;4936361;28;20046;-81
2023/12/26 08:06:37;;;;;;;1.25;1.02;;;7.50;99.90;;;;;;4960286;28;20126;-80
2023/12/26 08:09:04;;;;;;;1.27;0.70;;;7.50;99.90;;;;;;4965859;28;20551;-80
2023/12/26 08:11:31;;;;;;;1.38;0.60;;;7.50;99.90;;;;;;4948426;28;20146;-79
2023/12/26 08:13:58;;;;;;;1.88;0.43;;;7.50;99.90;;;;;;4965276;28;20083;-80
2023/12/26 08:16:25;;;;;;;1.27;0.60;;;7.50;99.90;;;;;;4963744;28;20053;-79
2023/12/26 08:18:54;;;;;;;2.67;0.90;;;7.50;99.90;;;;;;4948006;28;20061;-79
2023/12/26 08:21:21;;;;;;;1.08;0.70;;;7.50;99.90;;;;;;4946074;28;20492;-79
2023/12/26 08:23:48;;;;;;;2.20;0.68;;;7.50;99.90;;;;;;4964992;28;20054;-79
2023/12/26 08:26:15;;;;;;;1.90;0.70;;;7.50;99.90;;;;;;4968117;28;20082;-79
2023/12/26 08:28:42;;;;;;;1.13;0.60;;;7.50;99.90;;;;;;4949821;28;20070;-79
2023/12/26 08:31:09;;;;;;;3.88;1.30;;;7.50;99.90;;;;;;4963055;28;20066;-79
2023/12/26 08:33:37;;;;;;;2.33;0.80;;;7.50;99.90;;;;;;4959411;28;20485;-79
2023/12/26 08:36:05;;;;;;;1.10;0.70;;;7.50;99.90;;;;;;4929602;28;20054;-78
2023/12/26 08:38:32;;;;;;;2.55;0.82;;;7.50;99.90;;;;;;4961908;28;20069;-79
2023/12/26 08:40:59;;;;;;;1.92;0.80;;;7.50;99.90;;;;;;4965046;28;20061;-79
2023/12/26 08:43:28;;;;;;;1.45;0.88;;;7.60;99.90;;;;;;4961753;28;20091;-79
2023/12/26 08:45:55;;;;;;;2.03;0.95;;;7.60;99.90;;;;;;4959452;28;20043;-79
2023/12/26 08:48:22;;;;;;;1.98;1.13;;;7.60;99.90;;;;;;4960322;28;20062;-81
2023/12/26 08:50:50;;;;;;;1.35;0.68;;;7.60;99.90;;;;;;4943712;28;20442;-80
2023/12/26 08:53:17;;;;;;;2.10;0.95;;;7.70;99.90;;;;;;4963174;28;20126;-79
2023/12/26 08:55:46;;;;;;;1.52;0.80;;;7.60;99.90;;;;;;4963998;28;20086;-80
2023/12/26 08:58:14;;;;;;;1.38;0.90;;;7.70;99.90;;;;;;4946391;28;20314;-79
2023/12/26 09:00:44;;;;;;;1.77;0.80;;;7.70;99.90;;;;;;4929068;28;20066;-80
2023/12/26 09:03:12;;;;;;;1.48;0.63;;;7.70;99.90;;;;;;4930722;28;20055;-82
2023/12/26 09:05:40;;;;;;;1.02;0.80;;;7.70;99.90;;;;;;4947293;28;20114;-81
2023/12/26 09:08:08;;;;;;;1.10;0.73;;;7.70;99.90;;;;;;4947404;28;20105;-81
2023/12/26 09:10:35;;;;;;;1.33;0.93;;;7.80;99.90;;;;;;4948235;28;20516;-79
2023/12/26 09:13:06;;;;;;;1.88;0.80;;;7.80;99.90;;;;;;4962987;28;20050;-80
2023/12/26 09:15:34;;;;;;;1.63;0.70;;;7.90;99.90;;;;;;4933433;28;20059;-80
2023/12/26 09:18:02;;;;;;;2.17;0.90;;;7.90;99.90;;;;;;4963638;28;20085;-80
2023/12/26 09:20:30;;;;;;;3.15;1.15;;;7.90;99.90;;;;;;4963889;28;20461;-80
2023/12/26 09:22:57;;;;;;;2.03;0.70;;;7.90;99.90;;;;;;4962196;28;20050;-78
2023/12/26 09:25:24;;;;;;;1.80;0.65;;;8.00;99.90;;;;;;4967591;28;20508;-85
2023/12/26 09:27:53;;;;;;;3.10;0.80;;;8.00;99.90;;;;;;4950600;29;20065;-86
2023/12/26 09:30:20;;;;;;;2.97;0.90;;;8.00;99.90;;;;;;4952102;28;20150;-85
2023/12/26 09:32:48;;;;;;;2.35;1.73;;;8.00;99.90;;;;;;4932513;28;20047;-84
2023/12/26 09:35:16;;;;;;;1.77;0.95;;;8.00;99.90;;;;;;4935645;28;20086;-84
2023/12/26 09:37:45;;;;;;;3.72;1.48;;;8.10;99.90;;;;;;4950839;28;20058;-85
2023/12/26 09:40:12;;;;;;;0.77;0.70;;;8.10;99.90;;;;;;4929889;28;20138;-82
2023/12/26 09:42:40;;;;;;;3.17;1.45;;;8.10;99.90;;;;;;4936616;28;20047;-84
2023/12/26 09:45:14;;;;;;;4.07;1.10;;;8.20;99.90;;;;;;4935293;28;20055;-86
2023/12/26 09:47:50;;;;;;;1.63;0.85;;;8.20;99.90;;;;;;4936380;28;20059;-85
2023/12/26 09:50:23;;;;;;;3.35;1.10;;;8.20;99.90;;;;;;4947938;28;20515;-84
2023/12/26 09:52:59;;;;;;;1.80;1.33;;;8.20;99.90;;;;;;4942891;28;20046;-85
2023/12/26 09:55:29;;;;;;;2.72;0.70;;;8.20;99.90;;;;;;4933978;28;20062;-83
2023/12/26 09:57:58;;;;;;;2.13;1.08;;;8.20;99.90;;;;;;4939689;28;20220;-86
2023/12/26 10:00:28;;;;;;;1.23;0.77;;;8.20;99.90;;;;;;4937919;28;20075;-85
2023/12/26 10:02:56;;;;;;;0.93;0.60;;;8.20;99.90;;;;;;4934032;28;20117;-85
2023/12/26 10:05:24;;;;;;;3.50;2.25;;;8.30;99.90;;;;;;4934613;29;20070;-86
2023/12/26 10:07:56;;;;;;;1.63;0.70;;;8.30;99.90;;;;;;4952148;28;20047;-87
2023/12/26 10:10:24;;;;;;;1.63;0.70;;;8.30;99.90;;;;;;4939335;28;20059;-86
2023/12/26 10:12:53;;;;;;;1.27;0.80;;;8.30;99.90;;;;;;4950881;28;20085;-85
2023/12/26 10:15:21;;;;;;;1.52;0.50;;;8.30;99.90;;;;;;4925793;28;20054;-84
2023/12/26 10:17:51;;;;;;;2.20;0.60;;;8.30;99.90;;;;;;4937368;28;20048;-86
2023/12/26 10:20:20;;;;;;;1.38;0.80;;;8.30;99.90;;;;;;4945589;28;20063;-87
2023/12/26 10:22:49;;;;;;;1.50;0.88;;;8.40;99.90;;;;;;4940925;28;20068;-88
2023/12/26 10:25:17;;;;;;;1.13;0.70;;;8.40;99.90;;;;;;4957432;28;20054;-84
2023/12/26 10:27:57;;;;;;;1.17;0.55;;;8.40;99.90;;;;;;4936239;28;20544;-87
2023/12/26 10:30:25;;;;;;;1.52;0.73;;;8.40;99.90;;;;;;4941177;28;20054;-81
2023/12/26 10:33:03;;;;;;;1.45;0.70;;;8.50;99.90;;;;;;4933468;28;20182;-83
2023/12/26 10:35:33;;;;;;;2.15;0.60;;;8.50;99.90;;;;;;4935408;28;20114;-82
2023/12/26 10:38:00;;;;;;;1.42;0.77;;;8.60;99.90;;;;;;4962673;28;20050;-83
2023/12/26 10:40:28;;;;;;;1.63;0.50;;;8.60;99.90;;;;;;4930453;28;20047;-83
2023/12/26 10:42:56;;;;;;;1.60;0.90;;;8.70;99.90;;;;;;4938411;28;20552;-83
2023/12/26 10:45:24;;;;;;;1.35;0.80;;;8.70;99.90;;;;;;4949388;28;20232;-86
2023/12/26 10:47:51;;;;;;;1.73;1.08;;;8.70;99.90;;;;;;4931294;28;20047;-82
2023/12/26 10:50:19;;;;;;;2.13;0.90;;;8.70;99.90;;;;;;4926953;28;20078;-82
2023/12/26 10:53:07;;;;;;;1.70;1.00;;;8.70;99.90;;;;;;4944136;28;20488;-82
2023/12/26 10:55:34;;;;;;;2.17;1.20;;;8.70;99.90;;;;;;4946868;28;20073;-81
2023/12/26 10:58:23;;;;;;;3.00;1.52;;;8.70;99.90;;;;;;4931513;28;20047;-81
2023/12/26 13:53:58;;;;;;;1.55;0.70;;;10.20;99.90;;;;;;4958361;28;20043;-77
2023/12/26 13:56:25;;;;;;;0.60;0.60;;;10.30;99.90;;;;;;4956400;28;20055;-79
2023/12/26 13:58:52;;;;;;;0.80;0.68;;;10.30;99.90;;;;;;4958269;28;20059;-80
2023/12/26 14:01:19;;;;;;;1.10;0.82;;;10.30;99.90;;;;;;4954780;28;20059;-78
2023/12/26 14:03:50;;;;;;;0.50;0.50;;;10.40;99.90;;;;;;4969935;28;20055;-80
2023/12/26 14:06:28;;;;;;;1.13;0.80;;;10.50;99.90;;;;;;4956799;28;20058;-78
2023/12/26 14:08:55;;;;;;;0.63;0.60;;;10.50;99.90;;;;;;4953176;28;20050;-78
2023/12/26 14:11:26;;;;;;;0.80;0.70;;;10.40;99.90;;;;;;4957954;28;20059;-79
2023/12/26 14:13:53;;;;;;;0.80;0.50;;;10.40;99.90;;;;;;4927350;28;20039;-80
2023/12/26 14:16:21;;;;;;;1.42;0.90;;;10.40;99.90;;;;;;4953385;28;20059;-81
2023/12/26 14:18:48;;;;;;;0.68;0.63;;;10.30;99.90;;;;;;4955668;28;20075;-78
2023/12/26 14:21:16;;;;;;;1.00;0.70;;;10.30;99.90;;;;;;4941787;28;20055;-78
2023/12/26 14:23:43;;;;;;;0.60;0.60;;;10.20;99.90;;;;;;4958506;28;20046;-81
2023/12/26 14:26:10;;;;;;;0.65;0.57;;;10.20;99.90;;;;;;4940088;28;20050;-78
2023/12/26 14:28:37;;;;;;;0.98;0.65;;;10.20;99.90;;;;;;4962233;28;20290;-79
2023/12/26 14:31:03;;;;;;;1.08;0.50;;;10.20;99.90;;;;;;4926355;28;20050;-78
2023/12/26 14:34:08;;;;;;;0.98;0.60;;;10.20;99.90;;;;;;4954939;28;20047;-78
2023/12/26 14:37:14;;;;;;;1.50;0.68;;;10.10;99.90;;;;;;4956828;28;20043;-79
2023/12/26 14:40:19;;;;;;;1.25;0.75;;;10.10;99.90;;;;;;4955124;28;20409;-78
2023/12/26 14:43:24;;;;;;;0.70;0.50;;;10.10;99.90;;;;;;4950369;28;20058;-78
2023/12/26 14:46:28;;;;;;;0.52;0.50;;;10.20;99.90;;;;;;4957682;28;20046;-78
2023/12/26 14:49:34;;;;;;;0.57;0.40;;;10.20;99.90;;;;;;4954908;28;20421;-76
2023/12/26 14:52:39;;;;;;;1.27;0.50;;;10.30;99.90;;;;;;4950631;28;20076;-80
2023/12/26 14:55:44;;;;;;;0.63;0.55;;;10.30;99.90;;;;;;4953665;28;20082;-81
2023/12/26 14:58:48;;;;;;;1.10;0.57;;;10.30;99.90;;;;;;4956258;28;20058;-79
2023/12/26 15:01:53;;;;;;;0.32;0.32;;;10.20;99.90;;;;;;4959627;28;20058;-77
2023/12/26 15:04:23;;;;;;;0.70;0.50;;;10.20;99.90;;;;;;4956526;28;20051;-79
2023/12/26 15:06:50;;;;;;;0.93;0.60;;;10.10;99.90;;;;;;4938452;28;20102;-80
2023/12/26 15:09:17;;;;;;;0.40;0.40;;;10.00;99.90;;;;;;4942779;28;20086;-81
2023/12/26 15:11:44;;;;;;;0.88;0.50;;;9.90;99.90;;;;;;4958743;28;20791;-81
2023/12/26 15:14:14;;;;;;;0.80;0.55;;;9.90;99.90;;;;;;4954547;28;20465;-80
2023/12/26 15:17:01;;;;;;;0.50;0.50;;;9.90;99.90;;;;;;4951913;28;20442;-82
2023/12/26 15:19:28;;;;;;;0.75;0.60;;;9.80;99.90;;;;;;4922085;28;20047;-84
2023/12/26 15:21:55;;;;;;;0.75;0.68;;;9.70;98.80;;;;;;4955785;28;20515;-80
2023/12/26 15:24:21;;;;;;;0.80;0.63;;;9.60;98.70;;;;;;4943291;28;20133;-83
2023/12/26 15:26:48;;;;;;;0.73;0.60;;;9.50;94.10;;;;;;4955384;28;20050;-82
2023/12/26 15:29:15;;;;;;;1.17;0.80;;;9.40;97.50;;;;;;4947844;28;20078;-80
2023/12/26 15:31:45;;;;;;;0.80;0.70;;;9.20;95.70;;;;;;4947831;28;20047;-81
2023/12/26 15:34:12;;;;;;;1.40;1.02;;;9.10;99.90;;;;;;4927396;28;20145;-81
2023/12/26 15:36:41;;;;;;;1.58;1.10;;;9.00;99.90;;;;;;4928419;28;20046;-82
2023/12/26 15:39:11;;;;;;;2.50;1.20;;;8.90;99.90;;;;;;4942596;28;20053;-82
2023/12/26 15:41:38;;;;;;;1.50;1.00;;;8.80;99.90;;;;;;4930083;28;20054;-80
2023/12/26 15:44:06;;;;;;;1.63;1.30;;;8.70;99.90;;;;;;4956829;28;20507;-80
2023/12/26 15:46:33;;;;;;;2.53;1.00;;;8.50;99.90;;;;;;4955136;28;20051;-87
2023/12/26 15:49:00;;;;;;;2.63;1.23;;;8.40;99.90;;;;;;4957022;28;20580;-82
2023/12/26 15:51:29;;;;;;;1.08;0.80;;;8.30;99.90;;;;;;4941181;28;20109;-85
2023/12/26 15:53:56;;;;;;;1.38;1.10;;;8.20;99.90;;;;;;4938597;28;20137;-81
2023/12/26 15:56:24;;;;;;;1.42;1.10;;;8.00;99.90;;;;;;4954327;28;20087;-80